Time;durP1;ratioP1;P1;durP2;ratioP2;P2;SDS_P1;SDS_P2;PMS_P1;PMS_P2;Temp;Humidity;BMP_temperature;BMP_pressure;BME280_temperature;BME280_humidity;BME280_pressure;Samples;Min_cycle;Max_cycle;Signal;HPM_P1;HPM_P2
2022/04/23 00:00:53;;;;;;;8.50;6.00;;;;;;;;;;5079933;27;89251;-66
2022/04/23 00:03:20;;;;;;;12.52;6.03;;;;;;;;;;5080243;27;88046;-66
2022/04/23 00:05:46;;;;;;;9.77;6.47;;;;;;;;;;5076469;27;88661;-66
2022/04/23 00:08:14;;;;;;;9.73;6.15;;;;;;;;;;5077608;27;88991;-67
2022/04/23 00:10:40;;;;;;;14.88;6.53;;;;;;;;;;5064399;27;88061;-67
2022/04/23 00:13:06;;;;;;;9.15;6.95;;;;;;;;;;5076636;27;88821;-66
2022/04/23 00:15:39;;;;;;;13.05;6.65;;;;;;;;;;5078527;27;88735;-67
2022/04/23 00:18:09;;;;;;;9.77;6.95;;;;;;;;;;5078055;27;89720;-67
2022/04/23 00:20:36;;;;;;;8.43;6.30;;;;;;;;;;5061436;27;89103;-67
2022/04/23 00:23:03;;;;;;;9.80;6.90;;;;;;;;;;5065853;27;88153;-67
2022/04/23 00:25:29;;;;;;;10.57;6.78;;;;;;;;;;5073039;27;91940;-67
2022/04/23 00:27:55;;;;;;;10.50;6.82;;;;;;;;;;5073160;27;90911;-67
2022/04/23 00:30:22;;;;;;;9.25;6.68;;;;;;;;;;5085701;27;88906;-66
2022/04/23 00:32:48;;;;;;;14.15;7.10;;;;;;;;;;5068226;27;88909;-67
2022/04/23 00:35:15;;;;;;;11.65;7.30;;;;;;;;;;5070078;27;88113;-67
2022/04/23 00:37:42;;;;;;;10.75;7.18;;;;;;;;;;5061028;27;88492;-66
2022/04/23 00:40:16;;;;;;;10.48;7.70;;;;;;;;;;5063064;27;91019;-67
2022/04/23 00:42:46;;;;;;;9.63;7.85;;;;;;;;;;5078788;27;88510;-66
2022/04/23 00:45:12;;;;;;;11.85;7.97;;;;;;;;;;5067444;27;89806;-67
2022/04/23 00:47:38;;;;;;;11.02;7.32;;;;;;;;;;5092392;27;88836;-67
2022/04/23 00:50:05;;;;;;;11.32;8.15;;;;;;;;;;5067908;27;88308;-67
2022/04/23 00:52:32;;;;;;;11.10;7.97;;;;;;;;;;5075777;27;89854;-67
2022/04/23 00:54:59;;;;;;;15.48;8.23;;;;;;;;;;5068762;27;88328;-67
2022/04/23 00:57:26;;;;;;;14.43;8.15;;;;;;;;;;5065536;27;89863;-66
2022/04/23 00:59:52;;;;;;;14.18;8.02;;;;;;;;;;5072385;27;88869;-66
2022/04/23 01:02:18;;;;;;;11.90;8.68;;;;;;;;;;5062438;27;88269;-66
2022/04/23 01:04:46;;;;;;;14.60;8.95;;;;;;;;;;5074155;27;89682;-66
2022/04/23 01:07:13;;;;;;;10.68;8.20;;;;;;;;;;5062100;27;88910;-66
2022/04/23 01:09:43;;;;;;;11.77;8.70;;;;;;;;;;5077553;27;88099;-67
2022/04/23 01:12:10;;;;;;;;;;;;;;;;;;5075202;27;88625;-66
2022/04/23 01:14:56;;;;;;;11.82;8.68;;;;;;;;;;5068269;27;120207;-66
2022/04/23 01:17:22;;;;;;;13.98;9.38;;;;;;;;;;5058401;27;92343;-67
2022/04/23 01:19:48;;;;;;;13.23;9.13;;;;;;;;;;5065855;27;88826;-67
2022/04/23 01:22:15;;;;;;;16.80;9.48;;;;;;;;;;5077331;27;87680;-67
2022/04/23 01:24:42;;;;;;;16.10;9.80;;;;;;;;;;5075617;27;88097;-67
2022/04/23 01:27:10;;;;;;;16.73;10.15;;;;;;;;;;5065973;27;89397;-67
2022/04/23 01:29:38;;;;;;;13.85;9.90;;;;;;;;;;5076559;27;88833;-67
2022/04/23 01:32:06;;;;;;;13.85;9.50;;;;;;;;;;5075265;27;91385;-67
2022/04/23 01:34:32;;;;;;;14.15;9.68;;;;;;;;;;5069073;27;89281;-67
2022/04/23 01:36:59;;;;;;;20.15;9.82;;;;;;;;;;5068978;27;90798;-67
2022/04/23 01:39:25;;;;;;;13.85;9.88;;;;;;;;;;5066224;27;90182;-66
2022/04/23 01:41:51;;;;;;;17.33;10.27;;;;;;;;;;5071326;27;88787;-67
2022/04/23 01:44:17;;;;;;;14.77;10.50;;;;;;;;;;5072077;27;89449;-66
2022/04/23 01:46:44;;;;;;;27.27;10.57;;;;;;;;;;5067884;27;89210;-66
2022/04/23 01:49:10;;;;;;;16.23;10.73;;;;;;;;;;5058143;27;90439;-67
2022/04/23 01:51:36;;;;;;;14.50;10.68;;;;;;;;;;5071308;27;89257;-67
2022/04/23 01:54:02;;;;;;;18.13;10.95;;;;;;;;;;5057378;27;90483;-67
2022/04/23 01:56:29;;;;;;;13.25;10.65;;;;;;;;;;5072269;27;89877;-67
2022/04/23 01:58:55;;;;;;;17.50;11.50;;;;;;;;;;5074803;27;89963;-67
2022/04/23 02:01:21;;;;;;;17.27;11.73;;;;;;;;;;5073491;27;91487;-67
2022/04/23 02:03:48;;;;;;;13.68;11.07;;;;;;;;;;5064147;27;89503;-67
2022/04/23 02:06:14;;;;;;;13.68;11.57;;;;;;;;;;5070244;27;89088;-67
2022/04/23 02:08:40;;;;;;;15.65;11.63;;;;;;;;;;5056871;27;90070;-66
2022/04/23 02:11:07;;;;;;;16.80;11.73;;;;;;;;;;5076194;27;89435;-67
2022/04/23 02:13:34;;;;;;;20.85;12.27;;;;;;;;;;5065668;27;90420;-66
2022/04/23 02:16:03;;;;;;;19.13;12.25;;;;;;;;;;5062804;27;90890;-66
2022/04/23 02:18:30;;;;;;;16.87;12.70;;;;;;;;;;5067413;27;89110;-67
2022/04/23 02:20:57;;;;;;;19.55;12.73;;;;;;;;;;5067060;27;89883;-67
2022/04/23 02:23:23;;;;;;;20.92;12.73;;;;;;;;;;5072312;27;89412;-66
2022/04/23 02:25:49;;;;;;;18.90;12.82;;;;;;;;;;5066837;27;91520;-66
2022/04/23 02:28:15;;;;;;;17.05;12.75;;;;;;;;;;5075186;27;90095;-67
2022/04/23 02:30:42;;;;;;;18.60;12.77;;;;;;;;;;5067259;27;90154;-67
2022/04/23 02:33:08;;;;;;;24.42;14.13;;;;;;;;;;5069541;27;89904;-66
2022/04/23 02:35:34;;;;;;;19.13;13.43;;;;;;;;;;5059188;27;90345;-67
2022/04/23 02:38:01;;;;;;;17.73;13.82;;;;;;;;;;5066715;27;93614;-66
2022/04/23 02:40:28;;;;;;;16.77;13.52;;;;;;;;;;5072022;27;89170;-67
2022/04/23 02:42:56;;;;;;;18.10;14.07;;;;;;;;;;5075589;27;89563;-66
2022/04/23 02:45:25;;;;;;;19.58;14.52;;;;;;;;;;5069636;27;90802;-66
2022/04/23 02:47:52;;;;;;;20.38;14.70;;;;;;;;;;5072797;27;89019;-67
2022/04/23 02:50:29;;;;;;;18.92;14.38;;;;;;;;;;5057950;27;90473;-67
2022/04/23 02:52:56;;;;;;;18.63;14.45;;;;;;;;;;5067029;27;88929;-67
2022/04/23 02:55:24;;;;;;;19.17;14.13;;;;;;;;;;5062583;27;90751;-67
2022/04/23 02:57:50;;;;;;;28.60;16.15;;;;;;;;;;5060421;27;89105;-67
2022/04/23 03:00:17;;;;;;;23.30;16.08;;;;;;;;;;5064445;27;89423;-67
2022/04/23 03:02:44;;;;;;;20.17;15.73;;;;;;;;;;5059502;27;89873;-67
2022/04/23 03:05:11;;;;;;;22.90;15.20;;;;;;;;;;5058143;27;90601;-66
2022/04/23 03:07:38;;;;;;;23.75;16.02;;;;;;;;;;5064935;27;89919;-67
2022/04/23 03:10:05;;;;;;;21.85;15.63;;;;;;;;;;5067824;27;89227;-67
2022/04/23 03:12:31;;;;;;;20.83;15.32;;;;;;;;;;5072262;27;90029;-67
2022/04/23 03:14:58;;;;;;;20.88;15.48;;;;;;;;;;5068278;27;89872;-67
2022/04/23 03:17:24;;;;;;;25.90;16.40;;;;;;;;;;5075259;27;90460;-67
2022/04/23 03:19:50;;;;;;;24.85;16.33;;;;;;;;;;5063243;27;89176;-67
2022/04/23 03:22:17;;;;;;;22.48;17.42;;;;;;;;;;5069263;27;90237;-67
2022/04/23 03:24:44;;;;;;;25.50;17.35;;;;;;;;;;5077800;27;89385;-67
2022/04/23 03:27:10;;;;;;;24.38;17.83;;;;;;;;;;5073354;27;89873;-67
2022/04/23 03:29:37;;;;;;;20.77;16.65;;;;;;;;;;5065235;27;89575;-67
2022/04/23 03:32:03;;;;;;;23.73;17.35;;;;;;;;;;5070386;27;89454;-67
2022/04/23 03:34:29;;;;;;;19.67;16.45;;;;;;;;;;5070456;27;90084;-66
2022/04/23 03:36:56;;;;;;;25.80;18.15;;;;;;;;;;5071686;27;90685;-66
2022/04/23 03:39:22;;;;;;;25.23;17.40;;;;;;;;;;5070043;27;89042;-66
2022/04/23 03:41:48;;;;;;;22.77;18.23;;;;;;;;;;5071776;27;89832;-67
2022/04/23 03:44:14;;;;;;;22.23;17.88;;;;;;;;;;5064816;27;89621;-65
2022/04/23 03:46:41;;;;;;;21.38;16.90;;;;;;;;;;5071445;27;89810;-66
2022/04/23 03:49:10;;;;;;;28.92;17.75;;;;;;;;;;5058464;27;89656;-66
2022/04/23 03:51:36;;;;;;;25.95;18.55;;;;;;;;;;5066550;27;90444;-67
2022/04/23 03:54:02;;;;;;;22.88;17.27;;;;;;;;;;5065390;27;90925;-67
2022/04/23 03:56:28;;;;;;;24.13;19.05;;;;;;;;;;5064943;27;89396;-66
2022/04/23 03:58:55;;;;;;;25.55;19.50;;;;;;;;;;5071327;27;89028;-66
2022/04/23 04:01:21;;;;;;;27.92;19.20;;;;;;;;;;5059738;27;90183;-67
2022/04/23 04:03:47;;;;;;;29.73;19.02;;;;;;;;;;5073632;27;89687;-67
2022/04/23 04:06:14;;;;;;;24.23;17.55;;;;;;;;;;5055954;27;89998;-67
2022/04/23 04:08:40;;;;;;;25.05;18.33;;;;;;;;;;5063565;27;89594;-67
2022/04/23 04:11:06;;;;;;;26.27;18.25;;;;;;;;;;5067023;27;90630;-68
2022/04/23 04:13:33;;;;;;;27.02;19.52;;;;;;;;;;5073744;27;89978;-67
2022/04/23 04:15:59;;;;;;;26.52;19.25;;;;;;;;;;5062066;27;89698;-66
2022/04/23 04:18:25;;;;;;;27.25;19.88;;;;;;;;;;5075152;27;89002;-66
2022/04/23 04:20:53;;;;;;;23.88;19.13;;;;;;;;;;5070742;27;90900;-67
2022/04/23 04:23:20;;;;;;;24.77;19.35;;;;;;;;;;5058048;27;90062;-67
2022/04/23 04:25:46;;;;;;;24.48;19.15;;;;;;;;;;5066898;27;88992;-67
2022/04/23 04:28:12;;;;;;;28.02;20.38;;;;;;;;;;5075171;27;91577;-66
2022/04/23 04:33:24;;;;;;;33.45;19.75;;;;;;;;;;5059970;27;90961;-66
2022/04/23 04:35:50;;;;;;;26.20;19.42;;;;;;;;;;5066582;27;89403;-66
2022/04/23 04:38:21;;;;;;;25.77;20.38;;;;;;;;;;5065852;27;89146;-66
2022/04/23 04:40:47;;;;;;;22.60;18.25;;;;;;;;;;5071329;27;90058;-67
2022/04/23 04:43:13;;;;;;;26.60;19.98;;;;;;;;;;5081467;27;90582;-67
2022/04/23 04:45:40;;;;;;;26.70;19.15;;;;;;;;;;5071714;27;91575;-67
2022/04/23 04:48:06;;;;;;;23.20;19.00;;;;;;;;;;5062539;27;90555;-67
2022/04/23 04:50:32;;;;;;;26.70;20.38;;;;;;;;;;5061854;27;90943;-66
2022/04/23 04:52:59;;;;;;;31.15;20.13;;;;;;;;;;5069394;27;91827;-67
2022/04/23 04:55:25;;;;;;;25.30;20.45;;;;;;;;;;5064654;27;90659;-67
2022/04/23 04:57:51;;;;;;;25.50;19.15;;;;;;;;;;5062048;27;90600;-67
2022/04/23 05:00:20;;;;;;;23.70;19.60;;;;;;;;;;5073452;27;90459;-66
2022/04/23 05:02:47;;;;;;;27.02;19.33;;;;;;;;;;5078964;27;90468;-67
2022/04/23 05:05:13;;;;;;;27.55;19.85;;;;;;;;;;5070814;27;89936;-64
2022/04/23 05:07:39;;;;;;;31.50;20.52;;;;;;;;;;5070502;27;90285;-64
2022/04/23 05:10:06;;;;;;;28.75;20.38;;;;;;;;;;5058376;27;89608;-64
2022/04/23 05:12:32;;;;;;;34.55;20.42;;;;;;;;;;5078595;27;90004;-64
2022/04/23 05:14:58;;;;;;;23.98;20.27;;;;;;;;;;5076139;27;89788;-64
2022/04/23 05:17:25;;;;;;;36.28;20.83;;;;;;;;;;5062511;27;88978;-64
2022/04/23 05:19:51;;;;;;;27.70;20.67;;;;;;;;;;5050926;27;90195;-65
2022/04/23 05:22:17;;;;;;;31.27;19.88;;;;;;;;;;5066193;27;89037;-64
2022/04/23 05:24:44;;;;;;;26.23;19.95;;;;;;;;;;5072593;27;89137;-64
2022/04/23 05:27:10;;;;;;;30.65;19.85;;;;;;;;;;5070593;27;89848;-65
2022/04/23 05:29:36;;;;;;;26.92;20.65;;;;;;;;;;5063181;27;89587;-65
2022/04/23 05:32:03;;;;;;;26.67;19.35;;;;;;;;;;5075933;27;89446;-65
2022/04/23 05:34:29;;;;;;;24.90;19.67;;;;;;;;;;5090387;27;91107;-65
2022/04/23 05:36:55;;;;;;;24.50;18.40;;;;;;;;;;5073573;27;90083;-65
2022/04/23 05:39:22;;;;;;;31.75;19.10;;;;;;;;;;5060705;27;90190;-65
2022/04/23 05:41:48;;;;;;;26.77;18.63;;;;;;;;;;5061529;27;89629;-65
2022/04/23 05:44:14;;;;;;;20.45;17.40;;;;;;;;;;5064553;27;91278;-65
2022/04/23 05:46:40;;;;;;;27.90;17.33;;;;;;;;;;5081991;27;90029;-65
2022/04/23 05:49:06;;;;;;;25.73;17.13;;;;;;;;;;5077607;27;89405;-65
2022/04/23 05:51:33;;;;;;;21.23;17.38;;;;;;;;;;5074962;27;89162;-65
2022/04/23 05:53:59;;;;;;;28.35;17.70;;;;;;;;;;5076184;27;90438;-65
2022/04/23 05:56:29;;;;;;;22.13;16.42;;;;;;;;;;5067150;27;89763;-65
2022/04/23 05:58:56;;;;;;;24.13;16.98;;;;;;;;;;5057389;27;90046;-65
2022/04/23 06:01:22;;;;;;;28.73;17.05;;;;;;;;;;5063035;27;89602;-65
2022/04/23 06:03:48;;;;;;;22.95;16.95;;;;;;;;;;5072178;27;90119;-65
2022/04/23 06:06:15;;;;;;;21.58;16.42;;;;;;;;;;5062960;27;89916;-65
2022/04/23 06:08:42;;;;;;;19.80;16.05;;;;;;;;;;5058004;27;90123;-65
2022/04/23 06:11:08;;;;;;;21.40;16.15;;;;;;;;;;5067406;27;89500;-65
2022/04/23 06:13:34;;;;;;;25.20;14.18;;;;;;;;;;5064290;27;90994;-66
2022/04/23 06:16:00;;;;;;;17.27;14.43;;;;;;;;;;5059437;27;89502;-65
2022/04/23 06:18:27;;;;;;;31.45;15.68;;;;;;;;;;5057580;27;89963;-65
2022/04/23 06:20:53;;;;;;;19.38;15.25;;;;;;;;;;5056235;27;89293;-65
2022/04/23 06:23:19;;;;;;;26.75;15.18;;;;;;;;;;5063223;27;89779;-65
2022/04/23 06:25:46;;;;;;;19.80;14.02;;;;;;;;;;5059963;27;90149;-65
2022/04/23 06:28:12;;;;;;;23.88;14.55;;;;;;;;;;5071899;27;90018;-65
2022/04/23 06:30:38;;;;;;;18.63;14.70;;;;;;;;;;5056854;27;89151;-65
2022/04/23 06:33:05;;;;;;;24.90;15.30;;;;;;;;;;5066716;27;91350;-65
2022/04/23 06:35:31;;;;;;;20.75;14.75;;;;;;;;;;5073148;27;93118;-65
2022/04/23 06:37:57;;;;;;;17.30;14.25;;;;;;;;;;5078033;27;88995;-65
2022/04/23 06:40:24;;;;;;;18.73;14.48;;;;;;;;;;5077995;27;90200;-65
2022/04/23 06:42:51;;;;;;;22.42;15.85;;;;;;;;;;5075720;27;89122;-65
2022/04/23 06:45:17;;;;;;;20.88;15.10;;;;;;;;;;5059572;27;91140;-65
2022/04/23 06:47:43;;;;;;;22.02;14.45;;;;;;;;;;5061914;27;90726;-65
2022/04/23 06:50:10;;;;;;;17.92;14.93;;;;;;;;;;5069380;27;89208;-65
2022/04/23 06:52:36;;;;;;;21.35;15.15;;;;;;;;;;5058052;27;90063;-65
2022/04/23 06:55:03;;;;;;;19.27;15.23;;;;;;;;;;5064339;27;90219;-65
2022/04/23 06:57:29;;;;;;;17.98;15.10;;;;;;;;;;5067945;27;89966;-65
2022/04/23 06:59:58;;;;;;;19.27;15.10;;;;;;;;;;5080449;27;90211;-65
2022/04/23 07:02:24;;;;;;;23.75;14.85;;;;;;;;;;5061164;27;88997;-65
2022/04/23 07:04:51;;;;;;;17.42;14.48;;;;;;;;;;5069849;27;90005;-65
2022/04/23 07:07:17;;;;;;;20.65;14.88;;;;;;;;;;5063766;27;89715;-65
2022/04/23 07:09:43;;;;;;;22.35;14.30;;;;;;;;;;5064896;27;89247;-65
2022/04/23 07:12:10;;;;;;;19.35;14.57;;;;;;;;;;5076874;27;89851;-65
2022/04/23 07:14:38;;;;;;;20.38;14.52;;;;;;;;;;5077130;27;89416;-65
2022/04/23 07:17:06;;;;;;;22.42;15.15;;;;;;;;;;5062239;27;90627;-65
2022/04/23 07:19:37;;;;;;;22.20;16.17;;;;;;;;;;5056300;27;91185;-65
2022/04/23 07:22:03;;;;;;;20.83;15.82;;;;;;;;;;5063917;27;90755;-65
2022/04/23 07:24:30;;;;;;;17.98;14.68;;;;;;;;;;5064297;27;89797;-65
2022/04/23 07:26:59;;;;;;;22.23;16.15;;;;;;;;;;5056688;27;89849;-65
2022/04/23 07:29:25;;;;;;;23.60;15.32;;;;;;;;;;5056415;27;88832;-65
2022/04/23 07:31:51;;;;;;;31.15;14.77;;;;;;;;;;5066655;27;89876;-67
2022/04/23 07:37:28;;;;;;;18.05;13.90;;;;;;;;;;5021881;28;91071;-65
2022/04/23 07:39:58;;;;;;;23.13;14.32;;;;;;;;;;5013636;28;90038;-66
2022/04/23 07:42:26;;;;;;;19.83;13.93;;;;;;;;;;5029342;28;89577;-65
2022/04/23 07:44:52;;;;;;;26.17;14.20;;;;;;;;;;5033504;28;91117;-65
2022/04/23 07:47:19;;;;;;;17.20;14.70;;;;;;;;;;5029255;28;89585;-65
2022/04/23 07:49:46;;;;;;;21.30;14.75;;;;;;;;;;5033656;28;89018;-65
2022/04/23 07:52:12;;;;;;;20.30;13.82;;;;;;;;;;5030100;28;90070;-65
2022/04/23 07:54:39;;;;;;;24.40;13.95;;;;;;;;;;5032516;28;90851;-65
2022/04/23 07:57:08;;;;;;;19.30;14.60;;;;;;;;;;5018667;28;89051;-65
2022/04/23 07:59:38;;;;;;;23.87;15.63;;;;;;;;;;5029690;28;91460;-65
2022/04/23 08:02:05;;;;;;;18.63;14.17;;;;;;;;;;5021389;28;91300;-65
2022/04/23 08:04:31;;;;;;;17.33;13.75;;;;;;;;;;5016137;28;89226;-65
2022/04/23 08:06:58;;;;;;;21.55;14.93;;;;;;;;;;5032497;28;90759;-65
2022/04/23 08:09:24;;;;;;;19.45;14.68;;;;;;;;;;5029666;27;89787;-65
2022/04/23 08:11:50;;;;;;;17.17;14.55;;;;;;;;;;5031750;27;91131;-65
2022/04/23 08:14:16;;;;;;;15.85;13.77;;;;;;;;;;5062384;27;90022;-65
2022/04/23 08:16:45;;;;;;;18.90;14.23;;;;;;;;;;5063846;27;90317;-65
2022/04/23 08:19:11;;;;;;;18.85;14.40;;;;;;;;;;5063347;27;90373;-65
2022/04/23 08:21:37;;;;;;;20.73;15.18;;;;;;;;;;5070348;27;89478;-65
2022/04/23 08:24:04;;;;;;;22.83;14.43;;;;;;;;;;5066016;27;90483;-65
2022/04/23 08:26:30;;;;;;;16.42;13.82;;;;;;;;;;5061422;27;89916;-65
2022/04/23 08:31:41;;;;;;;17.52;13.65;;;;;;;;;;5074969;27;89987;-65
2022/04/23 08:34:07;;;;;;;16.65;13.35;;;;;;;;;;5065665;27;89609;-65
2022/04/23 08:36:37;;;;;;;19.95;13.65;;;;;;;;;;5056917;27;89133;-65
2022/04/23 08:39:04;;;;;;;17.07;13.77;;;;;;;;;;5062010;27;89809;-65
2022/04/23 08:41:31;;;;;;;17.67;13.85;;;;;;;;;;5079577;27;89677;-65
2022/04/23 08:44:05;;;;;;;17.70;14.45;;;;;;;;;;5061351;27;89369;-65
2022/04/23 08:46:36;;;;;;;17.40;14.35;;;;;;;;;;5072876;27;90346;-65
2022/04/23 08:49:02;;;;;;;;;;;;;;;;;;5074541;27;90542;-65
2022/04/23 08:51:32;;;;;;;19.88;14.65;;;;;;;;;;5059128;27;121069;-66
2022/04/23 08:54:01;;;;;;;18.30;14.48;;;;;;;;;;5059471;27;89403;-65
2022/04/23 08:56:28;;;;;;;18.30;13.63;;;;;;;;;;5076734;27;89347;-65
2022/04/23 08:58:56;;;;;;;23.35;14.52;;;;;;;;;;5063994;27;90949;-65
2022/04/23 09:01:22;;;;;;;20.83;15.00;;;;;;;;;;5058837;27;89453;-66
2022/04/23 09:03:49;;;;;;;17.35;14.60;;;;;;;;;;5061086;27;89045;-65
2022/04/23 09:06:15;;;;;;;24.35;14.07;;;;;;;;;;5073140;27;91160;-65
2022/04/23 09:09:00;;;;;;;19.33;13.55;;;;;;;;;;5058880;27;89511;-66
2022/04/23 09:11:35;;;;;;;21.00;13.80;;;;;;;;;;5061764;27;88962;-65
2022/04/23 09:14:02;;;;;;;15.52;13.40;;;;;;;;;;5064255;27;89878;-65
2022/04/23 09:25:03;;;;;;;19.08;15.40;;;;;;;;;;5030863;27;89501;-74
2022/04/23 09:27:31;;;;;;;30.35;14.23;;;;;;;;;;5030561;27;90231;-74
2022/04/23 09:29:58;;;;;;;20.48;15.02;;;;;;;;;;5034884;28;89355;-74
2022/04/23 09:32:27;;;;;;;18.05;14.27;;;;;;;;;;5036359;27;89321;-74
2022/04/23 09:35:06;;;;;;;29.70;15.80;;;;;;;;;;5037578;27;89985;-74
2022/04/23 09:40:27;;;;;;;18.77;14.18;;;;;;;;;;5035403;28;90128;-74
2022/04/23 09:42:58;;;;;;;18.70;13.77;;;;;;;;;;5019009;27;90017;-75
2022/04/23 09:45:26;;;;;;;19.05;13.52;;;;;;;;;;5019737;28;89475;-73
2022/04/23 09:47:54;;;;;;;17.52;14.05;;;;;;;;;;5032736;27;91764;-74
2022/04/23 09:50:20;;;;;;;15.50;13.48;;;;;;;;;;5017691;28;89539;-74
2022/04/23 09:52:46;;;;;;;21.08;14.15;;;;;;;;;;5017865;28;91324;-74
2022/04/23 09:55:23;;;;;;;52.05;16.33;;;;;;;;;;5024946;28;90058;-74
2022/04/23 09:57:50;;;;;;;35.28;15.57;;;;;;;;;;5051573;27;89665;-73
2022/04/23 10:00:16;;;;;;;19.50;13.70;;;;;;;;;;5094142;27;90334;-73
2022/04/23 10:02:44;;;;;;;32.60;14.20;;;;;;;;;;5075155;27;90029;-73
2022/04/23 10:05:11;;;;;;;16.25;13.35;;;;;;;;;;5068230;27;89726;-73
2022/04/23 10:07:40;;;;;;;19.75;13.15;;;;;;;;;;5075092;27;89820;-73
2022/04/23 10:10:08;;;;;;;19.83;12.57;;;;;;;;;;5090217;27;89621;-73
2022/04/23 10:12:35;;;;;;;24.80;13.80;;;;;;;;;;5076860;27;89569;-74
2022/04/23 10:15:01;;;;;;;21.58;14.50;;;;;;;;;;5058115;27;89130;-74
2022/04/23 10:17:28;;;;;;;18.65;14.93;;;;;;;;;;5073784;27;91553;-74
2022/04/23 10:19:54;;;;;;;20.98;13.93;;;;;;;;;;5059627;27;90617;-74
2022/04/23 10:22:41;;;;;;;17.80;13.35;;;;;;;;;;5066855;27;89650;-73
2022/04/23 10:25:22;;;;;;;16.15;13.32;;;;;;;;;;5065147;27;89159;-74
2022/04/23 10:27:50;;;;;;;17.13;13.20;;;;;;;;;;5056405;27;91280;-74
2022/04/23 10:30:16;;;;;;;20.50;13.77;;;;;;;;;;5056449;27;89930;-73
2022/04/23 10:32:43;;;;;;;18.88;13.45;;;;;;;;;;5057857;27;89768;-74
2022/04/23 10:35:18;;;;;;;17.17;13.32;;;;;;;;;;5074672;27;90181;-74
2022/04/23 10:37:46;;;;;;;23.58;13.73;;;;;;;;;;5077350;27;89421;-75
2022/04/23 10:40:13;;;;;;;17.85;12.88;;;;;;;;;;5060080;27;88811;-75
2022/04/23 10:43:00;;;;;;;32.00;14.68;;;;;;;;;;5055970;27;89393;-75
2022/04/23 10:45:36;;;;;;;18.42;15.00;;;;;;;;;;5067888;27;88965;-75
2022/04/23 10:48:24;;;;;;;18.67;13.48;;;;;;;;;;5057233;27;89889;-76
2022/04/23 10:51:00;;;;;;;20.35;14.32;;;;;;;;;;5074859;27;89613;-75
2022/04/23 10:53:28;;;;;;;21.20;13.27;;;;;;;;;;5066577;27;91440;-75
2022/04/23 10:56:07;;;;;;;17.80;13.10;;;;;;;;;;5071129;27;89969;-75
2022/04/23 10:58:34;;;;;;;20.85;11.95;;;;;;;;;;5076903;27;89424;-75
2022/04/23 11:01:20;;;;;;;16.27;12.27;;;;;;;;;;5073768;27;89561;-75
2022/04/23 11:03:56;;;;;;;31.63;13.18;;;;;;;;;;5059629;27;92865;-75
2022/04/23 11:12:16;;;;;;;;;;;;;;;;;;5075789;27;89922;-75
2022/04/23 11:14:51;;;;;;;19.13;12.45;;;;;;;;;;5078861;27;119776;-74
2022/04/23 11:17:44;;;;;;;20.05;12.82;;;;;;;;;;5057562;27;89056;-76
2022/04/23 11:20:11;;;;;;;122.28;20.02;;;;;;;;;;5062744;27;89991;-75
2022/04/23 11:22:37;;;;;;;23.45;13.13;;;;;;;;;;5056224;27;89314;-73
2022/04/23 11:25:04;;;;;;;17.65;12.32;;;;;;;;;;5056370;27;90212;-76
2022/04/23 11:27:32;;;;;;;18.60;12.60;;;;;;;;;;5060522;27;89736;-76
2022/04/23 11:29:58;;;;;;;21.08;13.52;;;;;;;;;;5066010;27;90178;-76
2022/04/23 11:32:28;;;;;;;15.55;12.35;;;;;;;;;;5074826;27;89592;-76
2022/04/23 11:34:54;;;;;;;;;;;;;;;;;;5074435;27;89184;-75
2022/04/23 11:37:37;;;;;;;18.33;12.73;;;;;;;;;;5064682;27;119226;-75
2022/04/23 11:40:28;;;;;;;17.80;12.93;;;;;;;;;;5069834;27;89632;-76
2022/04/23 11:42:54;;;;;;;16.95;13.50;;;;;;;;;;5066150;27;90549;-73
2022/04/23 11:45:22;;;;;;;139.90;22.25;;;;;;;;;;5080893;27;91281;-73
2022/04/23 11:47:49;;;;;;;15.73;12.25;;;;;;;;;;5077179;27;89478;-73
2022/04/23 11:50:16;;;;;;;19.17;11.98;;;;;;;;;;5078561;27;89800;-73
2022/04/23 11:52:44;;;;;;;15.23;12.43;;;;;;;;;;5063190;27;89711;-73
2022/04/23 11:55:21;;;;;;;16.00;12.88;;;;;;;;;;5079541;27;89104;-73
2022/04/23 11:57:54;;;;;;;14.73;12.35;;;;;;;;;;5060079;27;90347;-73
2022/04/23 12:00:21;;;;;;;17.95;12.48;;;;;;;;;;5075450;27;89265;-74
2022/04/23 12:02:48;;;;;;;16.38;11.80;;;;;;;;;;5060335;27;89205;-73
2022/04/23 12:05:22;;;;;;;20.58;11.82;;;;;;;;;;5059073;27;90084;-73
2022/04/23 12:07:48;;;;;;;74.53;17.13;;;;;;;;;;5075508;27;89393;-73
2022/04/23 12:10:14;;;;;;;21.60;12.38;;;;;;;;;;5060383;27;89598;-73
2022/04/23 12:12:47;;;;;;;13.73;11.80;;;;;;;;;;5083150;27;92853;-73
2022/04/23 12:15:14;;;;;;;19.05;11.65;;;;;;;;;;5076853;27;89018;-73
2022/04/23 12:17:47;;;;;;;143.18;21.02;;;;;;;;;;5069689;27;90099;-72
2022/04/23 12:20:14;;;;;;;24.35;11.20;;;;;;;;;;5065092;27;89749;-73
2022/04/23 12:22:53;;;;;;;20.05;12.00;;;;;;;;;;5059731;27;89285;-73
2022/04/23 12:25:19;;;;;;;41.55;15.20;;;;;;;;;;5059808;27;90324;-73
2022/04/23 12:27:56;;;;;;;17.00;11.88;;;;;;;;;;5079651;27;89860;-73
2022/04/23 12:41:38;;;;;;;18.52;13.10;;;;;;;;;;5075584;27;89528;-73
2022/04/23 12:44:18;;;;;;;17.75;13.68;;;;;;;;;;5075947;27;88877;-73
2022/04/23 12:46:54;;;;;;;20.42;12.88;;;;;;;;;;5060729;27;90408;-75
2022/04/23 12:49:22;;;;;;;28.65;13.93;;;;;;;;;;5059089;27;89708;-73
2022/04/23 12:51:52;;;;;;;27.10;13.50;;;;;;;;;;5064668;27;89014;-73
2022/04/23 12:54:21;;;;;;;27.02;14.20;;;;;;;;;;5077365;27;90076;-75
2022/04/23 12:56:48;;;;;;;26.83;13.83;;;;;;;;;;5070256;27;89877;-72
2022/04/23 12:59:14;;;;;;;19.73;15.02;;;;;;;;;;5059883;27;91275;-73
2022/04/23 13:01:40;;;;;;;16.10;14.07;;;;;;;;;;5067291;27;89698;-73
2022/04/23 13:04:11;;;;;;;20.65;14.88;;;;;;;;;;5067385;27;89009;-75
2022/04/23 13:09:22;;;;;;;20.67;14.98;;;;;;;;;;5075992;27;90438;-76
2022/04/23 13:11:55;;;;;;;27.75;13.65;;;;;;;;;;5059946;27;89234;-75
2022/04/23 13:14:22;;;;;;;20.05;13.95;;;;;;;;;;5069886;27;90156;-76
2022/04/23 13:16:48;;;;;;;16.25;13.48;;;;;;;;;;5072084;27;90336;-74
2022/04/23 13:19:21;;;;;;;27.92;14.25;;;;;;;;;;5082273;27;88928;-77
2022/04/23 13:21:47;;;;;;;21.45;14.23;;;;;;;;;;5070629;27;89687;-75
2022/04/23 13:24:14;;;;;;;20.88;14.00;;;;;;;;;;5079319;27;89028;-76
2022/04/23 13:26:40;;;;;;;21.80;14.13;;;;;;;;;;5077366;27;89959;-76
2022/04/23 13:29:07;;;;;;;19.70;13.45;;;;;;;;;;5072361;27;89386;-75
2022/04/23 13:31:39;;;;;;;17.33;14.10;;;;;;;;;;5069962;27;90328;-77
2022/04/23 13:34:05;;;;;;;23.75;13.98;;;;;;;;;;5076412;27;90027;-77
2022/04/23 13:36:33;;;;;;;23.02;13.50;;;;;;;;;;5078912;27;89637;-76
2022/04/23 13:38:59;;;;;;;20.70;13.63;;;;;;;;;;5074259;27;89067;-75
2022/04/23 13:41:26;;;;;;;18.45;13.52;;;;;;;;;;5070167;27;90146;-72
2022/04/23 13:43:52;;;;;;;19.45;14.27;;;;;;;;;;5076697;27;89154;-74
2022/04/23 13:46:18;;;;;;;35.17;13.73;;;;;;;;;;5067135;27;90386;-75
2022/04/23 13:48:45;;;;;;;17.08;11.95;;;;;;;;;;5078659;27;93100;-74
2022/04/23 13:51:11;;;;;;;17.10;12.18;;;;;;;;;;5074600;27;88958;-79
2022/04/23 13:53:37;;;;;;;18.00;12.43;;;;;;;;;;5059818;27;90189;-74
2022/04/23 13:56:04;;;;;;;17.15;12.13;;;;;;;;;;5067621;27;90736;-74
2022/04/23 13:58:30;;;;;;;23.90;11.90;;;;;;;;;;5057721;27;89459;-74
2022/04/23 14:00:56;;;;;;;16.70;11.20;;;;;;;;;;5058778;27;90064;-74
2022/04/23 14:11:37;;;;;;;15.93;10.38;;;;;;;;;;5057904;27;89177;-69
2022/04/23 14:14:04;;;;;;;18.65;10.35;;;;;;;;;;5057897;27;89886;-69
2022/04/23 14:16:30;;;;;;;14.10;10.30;;;;;;;;;;5067914;27;89356;-69
2022/04/23 14:18:57;;;;;;;15.95;8.63;;;;;;;;;;5076747;27;89047;-69
2022/04/23 14:21:23;;;;;;;18.65;9.10;;;;;;;;;;5057180;27;90741;-68
2022/04/23 14:23:49;;;;;;;20.52;9.88;;;;;;;;;;5078882;27;88085;-69
2022/04/23 14:26:16;;;;;;;13.00;9.82;;;;;;;;;;5075534;27;88847;-69
2022/04/23 14:28:42;;;;;;;13.60;10.18;;;;;;;;;;5079149;27;89916;-68
2022/04/23 14:31:09;;;;;;;15.27;9.75;;;;;;;;;;5077277;27;88919;-71
2022/04/23 14:33:35;;;;;;;16.60;10.35;;;;;;;;;;5076354;27;90102;-69
2022/04/23 14:36:01;;;;;;;16.33;10.18;;;;;;;;;;5057502;27;90659;-69
2022/04/23 14:38:29;;;;;;;14.18;9.43;;;;;;;;;;5068879;27;88995;-69
2022/04/23 14:40:55;;;;;;;11.20;9.95;;;;;;;;;;5077752;27;88714;-68
2022/04/23 14:43:21;;;;;;;12.93;9.48;;;;;;;;;;5074285;27;88720;-69
2022/04/23 14:45:47;;;;;;;16.88;9.60;;;;;;;;;;5065998;27;89800;-70
2022/04/23 14:48:14;;;;;;;11.80;8.80;;;;;;;;;;5066834;27;88197;-69
2022/04/23 14:53:25;;;;;;;15.05;9.20;;;;;;;;;;5058102;27;87960;-69
2022/04/23 14:55:51;;;;;;;12.23;8.70;;;;;;;;;;5070686;27;88639;-69
2022/04/23 14:58:18;;;;;;;22.38;9.30;;;;;;;;;;5064375;27;88968;-70
2022/04/23 15:00:44;;;;;;;21.83;10.07;;;;;;;;;;5064462;27;88004;-69
2022/04/23 15:03:10;;;;;;;14.40;9.45;;;;;;;;;;5063051;27;90799;-69
2022/04/23 15:05:37;;;;;;;13.02;9.00;;;;;;;;;;5075487;27;88648;-69
2022/04/23 15:08:03;;;;;;;17.15;9.82;;;;;;;;;;5067178;27;88120;-69
2022/04/23 15:10:30;;;;;;;11.73;8.80;;;;;;;;;;5068537;27;88771;-69
2022/04/23 15:12:57;;;;;;;13.25;9.02;;;;;;;;;;5057883;27;87975;-70
2022/04/23 15:15:24;;;;;;;16.38;10.10;;;;;;;;;;5072879;27;88628;-69